KBRL/BRL METAR and TAF weather

Enter ICAO airport designator
Station Type Date Time Source
KBRL METAR 2018/10/21 03:53 UTC NOAA

KBRL 210353Z AUTO 31004KT 10SM CLR 01/M06 A3039 RMK AO2 SLP295 T00061056


Station Type Date Time Source
KBRL Decoded METAR 2018/10/21 03:53 UTC NOAA

BURLINGTON REGIONAL AIRPORT, IA, United States (KBRL) 40-46N 91-08W 211M
Oct 20, 2018 - 11:53 PM EDT / 2018.10.21 0353 UTC
Wind: from the NW (310 degrees) at 5 MPH (4 KT):0
Visibility: 10 mile(s):0
Sky conditions: clear
Temperature: 33.1 F (0.6 C)
Windchill: 28 F (-2 C):1
Dew Point: 21.9 F (-5.6 C)
Relative Humidity: 63%
Pressure (altimeter): 30.39 in. Hg (1029 hPa)
ob: KBRL 210353Z AUTO 31004KT 10SM CLR 01/M06 A3039 RMK AO2 SLP295 T00061056
cycle: 4

Station Type Date Time Source
KBRL TAF 2018/10/20 18:46 UTC NOAA

TAF KBRL 201744Z 2018/2118 33023G38KT P6SM SKC
FM202100 33018G27KT P6SM FEW050
FM202300 33010KT P6SM SKC
FM210600 VRB03KT P6SM SKC
FM211400 22010KT P6SM SKC


Example: see airport list